Bovington Camp, United Kingdom
Current Conditions -  °F | °C
As of 5:20 AM on Wednesday 26 Nov 2014 (Local Time) from EGHH Reporting Station
Drizzle Drizzle  
Wind Chill: 42°   Ceiling: 300
Heat Index: 45°   Visibility: 2.1mi
Dew Point: 45°   Wind: 5mph
Humidity: 100%   Direction: 360°N
Pressure: 29.88"   Gusts: NA
Location:  50.7°N, 2.24°W
Report Text: EGHH 260520Z 36004KT 3500 BR -DZ BKN003 07/07 Q1012
Loading
Personal Weather Stations






























Interactive Weather Map New forecast layout! Learn more

10-Day Weather Forecast

Advertisements
Track Severe Weather on mobile